Time;durP1;ratioP1;P1;durP2;ratioP2;P2;SDS_P1;SDS_P2;PMS_P1;PMS_P2;Temp;Humidity;BMP_temperature;BMP_pressure;BME280_temperature;BME280_humidity;BME280_pressure;Samples;Min_cycle;Max_cycle;Signal;HPM_P1;HPM_P2
2023/10/07 00:00:54;;;;;;;2.97;2.10;;;;;;;23.64;49.33;101789.78;5052400;28;20051;-65
2023/10/07 00:03:20;;;;;;;2.45;1.80;;;;;;;23.61;49.33;101788.34;5010537;28;20426;-63
2023/10/07 00:05:47;;;;;;;3.67;2.08;;;;;;;23.64;49.02;101793.28;5041613;28;20052;-64
2023/10/07 00:08:16;;;;;;;5.28;2.38;;;;;;;23.62;49.29;101795.28;4980863;28;20542;-64
2023/10/07 00:10:46;;;;;;;4.25;2.88;;;;;;;23.62;49.28;101789.16;5054690;28;20056;-64
2023/10/07 00:13:12;;;;;;;4.68;2.85;;;;;;;23.63;48.99;101785.50;5003272;28;20076;-64
2023/10/07 00:15:42;;;;;;;4.60;3.35;;;;;;;23.64;49.25;101789.78;5054559;28;20052;-64
2023/10/07 00:18:14;;;;;;;4.40;3.08;;;;;;;23.64;49.22;101785.31;5006484;28;20060;-64
2023/10/07 00:20:54;;;;;;;5.00;3.08;;;;;;;23.63;49.09;101788.97;5051722;28;20053;-63
2023/10/07 00:23:22;;;;;;;4.07;2.95;;;;;;;23.62;49.26;101787.31;4987016;28;20093;-62
2023/10/07 00:25:49;;;;;;;5.30;2.85;;;;;;;23.62;49.10;101765.22;5052185;28;20524;-62
2023/10/07 00:28:28;;;;;;;3.97;2.65;;;;;;;23.59;49.12;101771.75;4982622;28;20059;-63
2023/10/07 00:30:55;;;;;;;4.20;3.20;;;;;;;23.63;49.23;101777.50;5046994;28;20065;-63
2023/10/07 00:33:22;;;;;;;4.95;2.95;;;;;;;23.59;49.17;101765.59;4982968;28;20143;-62
2023/10/07 00:35:49;;;;;;;6.15;3.20;;;;;;;23.64;48.93;101777.31;5052530;28;20135;-62
2023/10/07 00:38:15;;;;;;;3.75;3.20;;;;;;;23.60;49.04;101770.72;5000271;28;20051;-66
2023/10/07 00:40:57;;;;;;;4.05;2.65;;;;;;;23.63;49.21;101778.34;5050093;28;20045;-67
2023/10/07 00:43:27;;;;;;;6.32;3.70;;;;;;;23.62;49.07;101779.34;4998013;28;20508;-65
2023/10/07 00:45:59;;;;;;;4.03;2.85;;;;;;;23.62;49.31;101781.19;5053427;28;20522;-66
2023/10/07 00:48:38;;;;;;;3.45;2.58;;;;;;;23.63;49.09;101777.50;5003101;28;20059;-66
2023/10/07 00:51:11;;;;;;;3.78;2.72;;;;;;;23.60;49.16;101781.38;5055554;28;20485;-67
2023/10/07 00:53:46;;;;;;;4.22;2.63;;;;;;;23.62;49.21;101784.66;5000335;28;20402;-65
2023/10/07 00:56:14;;;;;;;4.10;3.28;;;;;;;23.63;49.17;101785.50;5047358;28;20055;-65
2023/10/07 00:58:41;;;;;;;3.40;2.78;;;;;;;23.63;49.26;101775.69;4980923;28;20860;-65
2023/10/07 01:01:10;;;;;;;4.75;2.85;;;;;;;23.62;49.17;101783.84;5056280;28;20052;-65
2023/10/07 01:03:56;;;;;;;5.03;2.90;;;;;;;23.63;49.03;101785.50;5034731;28;20454;-63
2023/10/07 01:06:31;;;;;;;4.95;3.17;;;;;;;23.63;49.09;101774.84;5035062;28;20669;-63
2023/10/07 01:09:14;;;;;;;3.47;2.75;;;;;;;23.63;49.15;101788.97;5013886;28;20133;-63
2023/10/07 01:11:45;;;;;;;4.57;3.83;;;;;;;23.62;49.32;101787.31;4995794;28;20068;-66
2023/10/07 01:14:12;;;;;;;3.47;2.67;;;;;;;23.60;49.04;101783.19;5042642;28;20440;-66
2023/10/07 01:16:45;;;;;;;5.22;4.63;;;;;;;23.60;49.19;101777.88;5003789;28;20490;-66
2023/10/07 01:19:28;;;;;;;4.85;3.08;;;;;;;23.64;49.18;101792.47;5050350;28;20036;-66
2023/10/07 01:27:16;;;;;;;5.10;4.57;;;;;;;23.62;49.22;101779.34;4979297;28;20115;-63
2023/10/07 01:29:42;;;;;;;5.38;3.20;;;;;;;23.63;49.02;101781.00;5038046;28;20087;-63
2023/10/07 01:32:13;;;;;;;3.90;2.75;;;;;;;23.62;49.07;101787.31;4988196;28;20044;-63
2023/10/07 01:34:47;;;;;;;4.28;2.80;;;;;;;23.62;49.06;101781.19;5035928;28;20068;-63
2023/10/07 01:37:15;;;;;;;3.60;2.85;;;;;;;23.59;49.18;101774.41;5001021;28;20048;-63
2023/10/07 01:39:42;;;;;;;3.75;2.47;;;;;;;23.62;49.27;101784.66;5051593;28;20095;-63
2023/10/07 01:42:20;;;;;;;4.45;3.22;;;;;;;23.63;49.01;101788.16;4995735;28;20049;-62
2023/10/07 01:44:48;;;;;;;3.85;2.63;;;;;;;23.61;49.21;101777.69;5041050;28;20044;-62
2023/10/07 01:47:23;;;;;;;3.97;2.92;;;;;;;23.61;49.23;101779.53;4986100;28;20110;-62
2023/10/07 01:49:56;;;;;;;4.13;2.92;;;;;;;23.61;49.19;101767.06;5049082;28;20044;-62
2023/10/07 01:52:26;;;;;;;3.58;2.55;;;;;;;23.61;49.23;101768.91;5001196;28;20092;-62
2023/10/07 01:54:55;;;;;;;4.35;2.83;;;;;;;23.54;49.06;101758.13;5051577;28;20051;-62
2023/10/07 01:57:21;;;;;;;3.97;2.87;;;;;;;23.62;49.18;101773.19;4998601;28;20079;-64
2023/10/07 01:59:47;;;;;;;5.68;3.53;;;;;;;23.62;49.19;101767.88;5043015;28;20467;-64
2023/10/07 02:02:14;;;;;;;5.28;2.83;;;;;;;23.63;49.25;101772.19;4968588;28;20138;-67
2023/10/07 02:04:40;;;;;;;3.30;2.72;;;;;;;23.62;49.02;101768.72;5036702;28;20503;-67
2023/10/07 02:07:08;;;;;;;4.18;3.08;;;;;;;23.63;49.22;101772.19;5051766;28;20047;-67
2023/10/07 02:09:41;;;;;;;4.72;2.97;;;;;;;23.64;49.16;101776.50;5041074;28;20048;-67
2023/10/07 02:12:09;;;;;;;3.78;2.70;;;;;;;23.62;49.24;101781.19;5011079;28;20048;-67
2023/10/07 02:14:36;;;;;;;4.53;2.53;;;;;;;23.63;49.13;101778.34;5037494;28;20052;-67
2023/10/07 02:17:03;;;;;;;3.72;2.80;;;;;;;23.64;49.06;101779.97;4985754;28;20057;-67
2023/10/07 02:19:29;;;;;;;4.15;2.92;;;;;;;23.64;49.29;101776.50;5039927;28;20052;-67
2023/10/07 02:21:59;;;;;;;3.90;2.90;;;;;;;23.63;49.16;101780.16;5000564;28;20055;-66
2023/10/07 02:24:29;;;;;;;5.72;3.13;;;;;;;23.62;49.12;101767.88;5049765;28;20051;-67
2023/10/07 02:27:06;;;;;;;4.65;3.38;;;;;;;23.58;49.18;101769.25;5002177;28;20121;-62
2023/10/07 02:29:40;;;;;;;4.85;2.60;;;;;;;23.64;49.14;101773.84;5036633;28;20410;-61
2023/10/07 02:32:13;;;;;;;4.85;3.75;;;;;;;23.64;49.14;101768.53;5015269;28;20044;-62
2023/10/07 02:34:51;;;;;;;5.10;3.05;;;;;;;23.63;49.07;101775.69;5055057;28;20125;-62
2023/10/07 02:37:25;;;;;;;2.60;2.40;;;;;;;23.63;49.34;101773.03;5029199;28;20052;-62
2023/10/07 02:39:56;;;;;;;7.47;5.18;;;;;;;23.64;49.17;101772.00;4994694;28;20658;-62
2023/10/07 02:42:28;;;;;;;3.17;2.88;;;;;;;23.63;48.88;101778.34;5035590;28;20131;-62
2023/10/07 02:45:20;;;;;;;4.10;3.58;;;;;;;23.65;49.35;101786.13;5014534;28;20119;-62
2023/10/07 02:48:00;;;;;;;3.42;2.70;;;;;;;23.62;49.12;101775.88;5034067;28;20056;-62
2023/10/07 02:50:26;;;;;;;3.80;3.13;;;;;;;23.59;49.24;101776.22;4999659;28;20681;-62
2023/10/07 02:52:53;;;;;;;5.10;2.95;;;;;;;23.61;49.13;101779.53;5050783;28;20063;-63
2023/10/07 02:57:55;;;;;;;3.67;2.72;;;;;;;23.63;49.10;101775.69;5048164;28;20128;-63
2023/10/07 03:00:37;;;;;;;3.65;3.03;;;;;;;23.60;49.13;101768.06;4997822;28;20045;-61
2023/10/07 03:05:45;;;;;;;5.47;3.15;;;;;;;23.65;49.15;101768.34;4998307;28;20091;-62
2023/10/07 03:08:21;;;;;;;2.97;2.33;;;;;;;23.64;49.21;101776.50;5048565;28;20048;-62
2023/10/07 03:11:03;;;;;;;3.22;2.80;;;;;;;23.61;49.30;101772.38;5028813;28;20052;-62
2023/10/07 03:13:37;;;;;;;3.92;2.85;;;;;;;23.61;49.06;101775.03;5039348;28;20530;-62
2023/10/07 03:16:28;;;;;;;2.88;2.63;;;;;;;23.65;49.13;101775.50;4984174;28;20049;-62
2023/10/07 03:22:09;;;;;;;3.97;2.65;;;;;;;23.62;49.16;101757.25;4983809;28;20531;-62
2023/10/07 03:24:41;;;;;;;5.20;2.65;;;;;;;23.64;49.28;101761.38;5038786;28;20052;-62
2023/10/07 03:27:10;;;;;;;4.88;2.60;;;;;;;23.65;49.06;101768.34;5063337;28;20047;-62
2023/10/07 03:29:37;;;;;;;5.05;4.45;;;;;;;23.64;49.09;101771.19;4998930;28;21193;-62
2023/10/07 03:32:12;;;;;;;6.07;3.10;;;;;;;23.66;49.21;101766.50;5053957;28;20056;-62
2023/10/07 03:34:45;;;;;;;6.28;5.43;;;;;;;23.63;49.32;101773.03;4997008;28;20538;-66
2023/10/07 03:42:41;;;;;;;3.97;3.17;;;;;;;23.64;49.17;101766.69;4998894;28;20145;-62
2023/10/07 03:45:10;;;;;;;2.47;2.28;;;;;;;23.64;49.29;101760.53;4948828;28;20053;-63
2023/10/07 03:47:37;;;;;;;3.58;2.85;;;;;;;23.66;49.22;101758.53;5024047;28;20045;-62
2023/10/07 03:50:20;;;;;;;4.07;2.75;;;;;;;23.65;49.22;101763.03;4999003;28;20818;-62
2023/10/07 03:52:50;;;;;;;4.10;2.85;;;;;;;23.66;49.15;101769.16;5050559;28;20051;-62
2023/10/07 03:55:15;;;;;;;4.32;2.83;;;;;;;23.65;49.42;101764.84;5005842;28;20056;-62
2023/10/07 03:57:42;;;;;;;3.25;2.65;;;;;;;23.66;49.09;101767.34;5041925;28;20699;-63
2023/10/07 04:00:11;;;;;;;3.85;2.83;;;;;;;23.65;49.05;101760.38;5002830;28;20175;-63
2023/10/07 04:02:39;;;;;;;3.78;2.83;;;;;;;23.67;49.29;101768.16;5050843;28;20045;-62
2023/10/07 04:05:10;;;;;;;4.47;3.08;;;;;;;23.66;49.19;101766.50;4997359;28;20054;-66
2023/10/07 04:07:36;;;;;;;4.07;2.63;;;;;;;23.64;49.38;101771.19;5051250;28;20518;-66
2023/10/07 04:12:47;;;;;;;4.07;2.90;;;;;;;23.64;49.17;101769.34;5057921;28;20057;-62
2023/10/07 04:15:17;;;;;;;3.80;2.47;;;;;;;23.58;49.17;101755.97;5005712;28;20041;-62
2023/10/07 04:17:44;;;;;;;5.07;2.65;;;;;;;23.65;49.16;101770.16;5053261;28;20088;-62
2023/10/07 04:20:30;;;;;;;3.38;2.80;;;;;;;23.66;49.21;101766.50;5036576;28;20072;-62
2023/10/07 04:23:00;;;;;;;3.97;2.92;;;;;;;23.66;49.17;101764.66;5052387;28;20051;-63
2023/10/07 04:25:27;;;;;;;3.15;2.58;;;;;;;23.66;49.27;101756.69;4997602;28;20181;-63
2023/10/07 04:27:54;;;;;;;4.25;2.60;;;;;;;23.65;49.21;101755.03;5056732;28;20041;-64
2023/10/07 04:30:39;;;;;;;4.28;2.85;;;;;;;23.67;49.05;101753.03;5004705;28;20032;-63
2023/10/07 04:33:10;;;;;;;3.08;2.42;;;;;;;23.67;49.05;101765.50;5041627;28;20048;-63
2023/10/07 04:35:37;;;;;;;5.43;3.03;;;;;;;23.66;49.23;101758.53;5004188;28;20603;-63
2023/10/07 04:38:10;;;;;;;3.65;3.22;;;;;;;23.66;49.17;101758.53;5049987;28;20044;-62
2023/10/07 04:41:30;;;;;;;7.78;7.03;;;;;;;23.65;49.18;101765.69;4987638;28;20609;-62
2023/10/07 04:46:22;;;;;;;2.83;2.63;;;;;;;23.67;49.04;101754.84;5029136;28;20044;-63
2023/10/07 04:48:55;;;;;;;5.07;4.47;;;;;;;23.66;49.28;101761.19;5027072;28;20713;-62
2023/10/07 04:54:00;;;;;;;5.72;5.20;;;;;;;23.64;49.21;101748.06;4994214;28;21132;-63
2023/10/07 04:56:27;;;;;;;4.22;3.15;;;;;;;23.65;49.17;101755.03;5053111;28;20056;-62
2023/10/07 04:58:55;;;;;;;4.60;4.18;;;;;;;23.65;49.21;101754.22;5012782;28;20120;-62
2023/10/07 05:01:33;;;;;;;4.90;3.00;;;;;;;23.65;49.13;101754.22;5052880;28;20655;-63
2023/10/07 05:04:09;;;;;;;6.93;6.25;;;;;;;23.67;49.16;101752.19;4998324;28;21341;-63
2023/10/07 05:06:37;;;;;;;6.00;2.97;;;;;;;23.64;49.23;101750.75;5057246;28;20062;-63
2023/10/07 05:09:09;;;;;;;7.10;4.93;;;;;;;23.66;49.22;101753.22;4994891;28;20390;-65
2023/10/07 05:11:43;;;;;;;3.25;2.92;;;;;;;23.67;49.27;101747.72;5054838;28;20041;-64
2023/10/07 05:14:10;;;;;;;7.30;6.50;;;;;;;23.66;49.23;101742.56;4985665;28;20687;-64
2023/10/07 05:16:36;;;;;;;3.67;3.35;;;;;;;23.66;49.20;101746.06;5051264;28;22028;-63
2023/10/07 05:19:04;;;;;;;5.88;5.30;;;;;;;23.64;49.33;101745.41;5000077;28;20727;-63
2023/10/07 05:21:32;;;;;;;4.65;3.10;;;;;;;23.65;49.18;101732.94;5041812;28;20049;-63
2023/10/07 05:24:02;;;;;;;4.88;3.72;;;;;;;23.67;49.27;101736.25;5051235;28;20585;-63
2023/10/07 05:26:30;;;;;;;3.92;3.30;;;;;;;23.64;49.20;101741.94;5051771;28;20106;-63
2023/10/07 05:29:02;;;;;;;4.45;3.10;;;;;;;23.66;49.16;101737.25;5003285;28;20988;-63
2023/10/07 05:31:30;;;;;;;4.40;3.28;;;;;;;23.66;49.02;101735.41;5048140;28;20137;-63
2023/10/07 05:33:59;;;;;;;3.25;2.95;;;;;;;23.65;49.16;101730.28;4986532;28;20148;-62
2023/10/07 05:36:30;;;;;;;4.03;3.10;;;;;;;23.66;49.20;101742.56;5054231;28;20071;-63
2023/10/07 05:38:56;;;;;;;3.80;3.33;;;;;;;23.67;49.29;101739.72;5000988;28;20064;-62
2023/10/07 05:41:25;;;;;;;4.50;3.58;;;;;;;23.66;49.15;101748.72;5050759;28;20105;-63
2023/10/07 05:43:52;;;;;;;4.13;2.95;;;;;;;23.66;49.24;101743.41;4994474;28;20044;-64
2023/10/07 05:46:19;;;;;;;7.43;4.70;;;;;;;23.68;49.15;101753.84;5057679;28;20391;-64
2023/10/07 05:48:45;;;;;;;4.43;3.75;;;;;;;23.68;49.23;101746.69;4999657;28;20056;-64
2023/10/07 05:51:11;;;;;;;4.68;4.20;;;;;;;23.65;49.37;101747.06;5036148;28;20218;-64
2023/10/07 05:53:38;;;;;;;6.70;3.53;;;;;;;23.68;49.46;101753.84;4999848;28;20051;-63
2023/10/07 05:56:07;;;;;;;5.15;3.95;;;;;;;23.68;49.18;101749.34;5049937;28;20051;-63
2023/10/07 05:58:37;;;;;;;6.10;4.07;;;;;;;23.68;49.23;101743.22;4993441;28;20098;-64
2023/10/07 06:01:04;;;;;;;3.88;3.40;;;;;;;23.68;49.14;101753.84;5053515;28;20052;-64
2023/10/07 06:03:30;;;;;;;4.40;3.65;;;;;;;23.63;49.19;101745.59;4999213;28;20048;-63
2023/10/07 06:05:57;;;;;;;5.10;4.63;;;;;;;23.69;49.25;101752.84;5051139;28;20044;-64
2023/10/07 06:08:27;;;;;;;4.18;3.67;;;;;;;23.67;49.31;101746.88;5001926;28;20399;-63
2023/10/07 06:10:56;;;;;;;5.57;4.38;;;;;;;23.67;49.21;101739.72;5027890;28;20040;-64
2023/10/07 06:13:26;;;;;;;4.13;3.75;;;;;;;23.66;49.24;101734.59;5006848;28;20495;-63
2023/10/07 06:15:57;;;;;;;5.63;4.22;;;;;;;23.66;49.37;101737.25;5054379;28;20054;-63
2023/10/07 06:18:23;;;;;;;5.97;5.20;;;;;;;23.66;49.39;101727.44;5002102;28;20383;-63
2023/10/07 06:20:51;;;;;;;5.88;4.45;;;;;;;23.68;49.08;101728.09;5044858;28;21898;-63
2023/10/07 06:23:24;;;;;;;6.43;4.07;;;;;;;23.68;49.27;101719.28;5001423;28;20055;-63
2023/10/07 06:25:51;;;;;;;7.20;4.65;;;;;;;23.67;49.08;101737.06;5034313;28;20079;-63
2023/10/07 06:31:12;;;;;;;7.13;5.63;;;;;;;23.68;49.11;101741.38;5035644;28;20131;-66
2023/10/07 06:33:41;;;;;;;7.88;5.70;;;;;;;23.68;49.15;101751.19;5049503;28;20052;-65
2023/10/07 06:36:12;;;;;;;7.13;6.10;;;;;;;23.69;49.15;101760.81;4997624;28;20528;-66
2023/10/07 06:38:58;;;;;;;7.78;5.88;;;;;;;23.68;49.34;101760.00;5047411;28;20048;-66
2023/10/07 06:41:27;;;;;;;8.30;6.05;;;;;;;23.61;49.43;101756.44;4998374;28;20128;-66
2023/10/07 06:43:54;;;;;;;7.35;5.32;;;;;;;23.65;49.10;101763.03;5052068;28;20486;-67
2023/10/07 06:46:22;;;;;;;9.40;7.95;;;;;;;23.67;49.27;101749.53;4992345;28;20135;-66
2023/10/07 06:48:48;;;;;;;7.00;6.05;;;;;;;23.67;49.20;101754.84;5057508;28;20066;-67
2023/10/07 06:51:14;;;;;;;7.85;6.30;;;;;;;23.67;49.13;101749.53;5002169;28;20380;-67
2023/10/07 06:53:42;;;;;;;6.38;5.22;;;;;;;23.66;49.30;101747.88;5053557;28;20036;-67
2023/10/07 06:56:21;;;;;;;10.30;6.82;;;;;;;23.68;49.07;101745.88;5003560;28;20040;-67
2023/10/07 06:58:53;;;;;;;7.63;6.30;;;;;;;23.60;49.05;101714.06;5048267;28;20407;-66
2023/10/07 07:01:35;;;;;;;7.35;5.30;;;;;;;23.67;49.16;101725.59;4999689;28;20118;-68
2023/10/07 07:04:09;;;;;;;8.70;6.15;;;;;;;23.68;49.28;101743.22;5045509;28;20040;-66
2023/10/07 07:06:42;;;;;;;5.95;4.65;;;;;;;23.68;49.20;101751.19;5002158;28;20052;-66
2023/10/07 07:12:09;;;;;;;4.95;3.50;;;;;;;23.67;49.22;101739.72;5003890;28;20066;-66
2023/10/07 07:14:41;;;;;;;4.82;3.53;;;;;;;23.67;49.21;101744.22;5052085;28;20593;-66
2023/10/07 07:22:38;;;;;;;5.35;3.75;;;;;;;23.71;49.18;101750.84;4989761;28;20091;-63
2023/10/07 07:25:10;;;;;;;3.95;3.28;;;;;;;23.71;49.23;101746.34;5059987;28;20102;-64
2023/10/07 07:27:36;;;;;;;4.20;3.65;;;;;;;23.71;49.19;101745.53;5003185;28;20067;-63
2023/10/07 07:30:02;;;;;;;4.63;3.95;;;;;;;23.68;49.21;101761.81;5054376;28;20052;-63
2023/10/07 07:32:35;;;;;;;5.53;4.25;;;;;;;23.72;49.00;101773.78;5000254;28;20045;-64
2023/10/07 07:35:04;;;;;;;4.55;3.88;;;;;;;23.71;49.06;101780.09;5038515;28;20041;-66
2023/10/07 07:37:34;;;;;;;6.18;4.32;;;;;;;23.71;49.24;101764.16;5053818;28;20158;-66
2023/10/07 07:40:35;;;;;;;4.05;3.08;;;;;;;23.72;49.25;101766.63;5000896;28;20440;-66
2023/10/07 07:42:57;;;;;;;4.97;3.15;;;;;;;23.72;49.11;101771.13;5053406;28;21534;-66
2023/10/07 07:45:26;;;;;;;4.97;3.88;;;;;;;23.72;49.05;101782.56;4999726;28;20048;-66
2023/10/07 07:47:53;;;;;;;7.80;4.53;;;;;;;23.74;49.17;101772.59;5054944;28;20067;-66
2023/10/07 07:50:19;;;;;;;5.78;4.55;;;;;;;23.73;49.02;101762.94;5000532;28;20049;-65
2023/10/07 07:52:49;;;;;;;7.15;4.55;;;;;;;23.69;49.35;101764.31;5051781;28;20122;-66
2023/10/07 07:55:18;;;;;;;4.72;4.13;;;;;;;23.69;49.00;101747.53;5005128;28;20059;-65
2023/10/07 07:57:44;;;;;;;5.60;4.40;;;;;;;23.57;50.33;101749.00;5053113;28;20056;-66
2023/10/07 08:00:25;;;;;;;6.97;4.82;;;;;;;23.65;50.36;101775.50;5005300;28;20479;-66
2023/10/07 08:02:51;;;;;;;7.32;4.57;;;;;;;23.56;50.72;101742.00;5047940;28;20045;-65
2023/10/07 08:05:17;;;;;;;5.85;4.43;;;;;;;23.50;51.00;101757.66;4998962;28;20490;-65
2023/10/07 08:07:44;;;;;;;7.22;4.35;;;;;;;23.60;50.38;101765.41;5051183;28;20048;-65
2023/10/07 08:10:13;;;;;;;6.35;4.20;;;;;;;23.67;50.13;101776.97;5004854;28;21837;-65
2023/10/07 08:12:38;;;;;;;5.97;4.28;;;;;;;23.69;50.10;101774.94;5053995;28;20056;-65
2023/10/07 08:15:21;;;;;;;6.15;4.40;;;;;;;23.68;49.95;101781.25;5008582;28;21055;-65
2023/10/07 08:17:50;;;;;;;8.98;4.78;;;;;;;23.70;50.03;101781.13;5057792;28;20073;-65
2023/10/07 08:20:16;;;;;;;6.97;4.15;;;;;;;23.71;49.84;101788.09;5004609;28;20517;-65
2023/10/07 08:22:51;;;;;;;7.53;4.93;;;;;;;23.71;49.85;101791.56;5053002;28;20056;-67
2023/10/07 08:25:37;;;;;;;5.55;4.65;;;;;;;23.71;50.00;101799.53;4999171;28;20048;-66
2023/10/07 08:28:18;;;;;;;5.50;4.38;;;;;;;23.73;49.88;101788.72;5058522;28;20435;-67
2023/10/07 08:30:47;;;;;;;8.27;5.10;;;;;;;23.75;49.75;101787.53;5003076;28;20137;-66
2023/10/07 08:33:17;;;;;;;6.15;4.82;;;;;;;23.76;49.67;101802.47;5051230;28;20051;-65
2023/10/07 08:35:43;;;;;;;6.18;4.38;;;;;;;23.76;49.69;101806.97;4997406;28;20060;-65
2023/10/07 08:38:37;;;;;;;6.18;4.47;;;;;;;23.78;49.65;101810.25;5047297;28;20056;-65
2023/10/07 08:41:04;;;;;;;6.70;4.57;;;;;;;23.76;49.64;101817.59;5000279;28;20894;-65
2023/10/07 08:44:01;;;;;;;4.97;3.97;;;;;;;23.77;49.74;101816.59;5051368;28;20153;-65
2023/10/07 08:46:28;;;;;;;6.18;4.47;;;;;;;23.77;49.64;101832.56;5055779;28;20037;-65
2023/10/07 08:49:05;;;;;;;14.20;12.15;;;;;;;23.77;49.65;101816.59;4985973;28;20600;-64
2023/10/07 08:51:44;;;;;;;5.70;4.38;;;;;;;23.80;49.80;101837.50;5039706;28;20041;-64
2023/10/07 08:54:11;;;;;;;12.68;11.30;;;;;;;23.80;49.79;101841.00;4978781;28;20611;-64
2023/10/07 08:56:40;;;;;;;6.88;4.38;;;;;;;23.78;49.55;101831.53;5036655;28;20080;-64
2023/10/07 08:59:12;;;;;;;13.45;10.35;;;;;;;23.82;49.70;101835.47;4979294;28;20055;-64
2023/10/07 09:01:44;;;;;;;5.53;4.03;;;;;;;23.73;49.48;101826.78;5035858;28;20183;-65
2023/10/07 09:04:10;;;;;;;10.43;9.25;;;;;;;23.80;49.75;101838.31;4981713;28;20951;-64
2023/10/07 09:06:37;;;;;;;4.70;3.72;;;;;;;23.82;49.62;101830.16;5037360;28;20041;-67
2023/10/07 09:09:08;;;;;;;14.18;12.75;;;;;;;23.80;49.58;101826.88;4984335;28;25406;-66
2023/10/07 09:11:37;;;;;;;5.82;4.50;;;;;;;23.83;49.69;101815.03;5037003;28;20036;-65
2023/10/07 09:14:08;;;;;;;13.52;11.77;;;;;;;23.80;49.54;101801.09;4984171;28;20056;-65
2023/10/07 09:16:34;;;;;;;5.78;4.10;;;;;;;23.83;49.59;101797.25;5038174;28;20087;-65
2023/10/07 09:19:10;;;;;;;15.10;12.13;;;;;;;23.84;49.60;101795.41;4986373;28;20684;-65
2023/10/07 09:21:37;;;;;;;7.30;4.70;;;;;;;23.84;49.51;101798.88;5034828;28;20059;-65
2023/10/07 09:24:04;;;;;;;11.27;10.15;;;;;;;23.85;49.44;101795.22;4995072;28;20487;-65
2023/10/07 09:26:33;;;;;;;6.20;4.20;;;;;;;23.85;49.69;101807.69;5040113;28;20033;-65
2023/10/07 09:29:15;;;;;;;18.10;15.75;;;;;;;23.85;49.50;101805.03;4984389;28;20049;-65
2023/10/07 09:31:42;;;;;;;7.50;4.57;;;;;;;23.83;49.74;101815.84;5021454;28;20518;-65
2023/10/07 09:34:29;;;;;;;15.65;11.48;;;;;;;23.84;49.56;101816.69;4983539;28;20634;-65
2023/10/07 09:37:08;;;;;;;7.88;5.53;;;;;;;23.86;49.59;101815.50;5032949;28;20514;-66
2023/10/07 09:39:43;;;;;;;7.78;5.47;;;;;;;23.85;49.58;101819.16;4976516;28;20053;-65
2023/10/07 09:42:25;;;;;;;7.60;5.50;;;;;;;23.85;49.62;101821.81;5035420;28;20064;-65
2023/10/07 09:44:54;;;;;;;7.38;5.05;;;;;;;23.84;49.59;101822.81;4984890;28;20132;-65
2023/10/07 09:47:22;;;;;;;6.40;4.90;;;;;;;23.85;49.58;101824.47;5040842;28;20040;-65
2023/10/07 09:49:50;;;;;;;5.72;4.40;;;;;;;23.85;49.62;101827.13;4998245;28;20079;-65
2023/10/07 09:52:27;;;;;;;7.13;5.28;;;;;;;23.86;49.58;101833.28;5040037;28;20045;-65
2023/10/07 09:55:25;;;;;;;6.55;4.93;;;;;;;23.86;49.65;101820.81;5055014;28;20040;-65
2023/10/07 09:57:56;;;;;;;6.63;4.95;;;;;;;23.86;49.71;101834.09;4992107;28;20059;-65
2023/10/07 10:03:30;;;;;;;7.82;5.03;;;;;;;23.86;49.61;101838.59;5026979;28;20130;-64
2023/10/07 10:05:59;;;;;;;14.65;12.82;;;;;;;23.86;49.58;101835.94;5001384;28;20103;-65
2023/10/07 10:08:59;;;;;;;5.30;4.32;;;;;;;23.86;49.35;101839.44;5050340;28;20042;-65
2023/10/07 10:11:31;;;;;;;5.10;4.22;;;;;;;23.87;49.58;101835.75;5005482;28;20421;-65
2023/10/07 10:17:00;;;;;;;7.22;4.07;;;;;;;23.87;49.47;101842.91;4971151;28;20044;-65
2023/10/07 10:19:37;;;;;;;5.88;4.07;;;;;;;23.88;49.50;101849.88;5056099;28;20354;-65
2023/10/07 10:22:13;;;;;;;6.35;4.85;;;;;;;23.89;49.50;101851.56;4997510;28;20076;-65
2023/10/07 10:24:43;;;;;;;7.55;3.88;;;;;;;23.87;49.58;101846.41;5040938;28;20059;-65
2023/10/07 10:27:11;;;;;;;5.68;4.05;;;;;;;23.90;49.44;101848.72;5004563;28;20063;-65
2023/10/07 10:29:52;;;;;;;5.15;4.32;;;;;;;23.92;49.42;101843.22;5056034;28;20054;-65
2023/10/07 10:32:34;;;;;;;5.75;4.18;;;;;;;23.91;49.47;101842.38;5006393;28;20044;-65
2023/10/07 10:35:03;;;;;;;6.88;4.88;;;;;;;23.86;49.52;101835.94;5056131;28;20068;-65
2023/10/07 10:37:30;;;;;;;7.60;5.83;;;;;;;23.91;49.35;101855.69;5004704;28;20440;-66
2023/10/07 10:40:17;;;;;;;4.57;3.35;;;;;;;23.91;49.39;101852.19;5057172;28;20462;-65
2023/10/07 10:42:43;;;;;;;5.63;3.30;;;;;;;23.92;49.53;101862.66;5004959;28;20053;-66
2023/10/07 10:45:20;;;;;;;3.78;2.88;;;;;;;23.92;49.39;101880.44;5058007;28;20460;-65
2023/10/07 10:47:57;;;;;;;3.97;3.28;;;;;;;23.92;49.51;101864.50;5007766;28;20052;-65
2023/10/07 10:50:28;;;;;;;5.18;3.53;;;;;;;23.90;49.50;101877.97;5058020;28;20052;-65
2023/10/07 10:52:58;;;;;;;5.82;3.95;;;;;;;23.94;49.38;101873.13;5008987;28;20055;-65
2023/10/07 10:55:24;;;;;;;4.53;3.78;;;;;;;23.93;49.54;101890.09;5058326;28;20143;-65
2023/10/07 10:57:53;;;;;;;5.82;3.80;;;;;;;23.93;49.39;101874.94;5002047;28;20052;-65
2023/10/07 11:00:20;;;;;;;5.10;4.10;;;;;;;23.94;49.29;101868.63;5044695;28;20376;-63
2023/10/07 11:02:46;;;;;;;4.95;3.95;;;;;;;23.88;49.51;101861.38;5041833;28;20033;-63
2023/10/07 11:05:15;;;;;;;6.75;4.22;;;;;;;23.94;49.49;101878.44;5005411;28;20533;-63
2023/10/07 11:07:46;;;;;;;5.20;4.18;;;;;;;23.94;49.60;101875.78;5057868;28;20054;-63
2023/10/07 11:10:20;;;;;;;5.35;3.65;;;;;;;23.88;49.41;101864.03;5004919;28;20178;-63
2023/10/07 11:12:52;;;;;;;5.60;4.00;;;;;;;23.95;49.40;101878.25;5053182;28;20059;-63
2023/10/07 11:15:24;;;;;;;4.25;3.63;;;;;;;23.94;49.42;101887.25;5004445;28;20124;-63
2023/10/07 11:18:23;;;;;;;6.32;4.00;;;;;;;23.92;49.52;101870.63;5055269;28;20723;-63
2023/10/07 11:20:46;;;;;;;4.35;3.10;;;;;;;23.93;49.42;101874.94;5004798;28;20380;-64
2023/10/07 11:23:15;;;;;;;4.18;3.22;;;;;;;23.91;49.46;101884.94;5056331;28;20524;-63
2023/10/07 11:25:42;;;;;;;4.15;3.20;;;;;;;23.92;49.43;101896.41;4984783;28;20100;-65
2023/10/07 11:28:09;;;;;;;4.97;2.90;;;;;;;23.89;49.48;101891.47;5052526;28;20059;-65
2023/10/07 11:30:48;;;;;;;4.95;3.13;;;;;;;23.88;49.53;101885.31;5004820;28;20032;-64
2023/10/07 11:33:18;;;;;;;5.72;4.18;;;;;;;23.90;49.62;101875.31;5051512;28;20135;-64
2023/10/07 11:35:46;;;;;;;5.70;3.78;;;;;;;23.89;49.55;101873.66;5003352;28;20063;-64
2023/10/07 11:38:13;;;;;;;5.00;3.85;;;;;;;23.88;49.43;101880.00;5048023;28;20036;-64
2023/10/07 11:40:40;;;;;;;4.22;3.33;;;;;;;23.89;49.44;101875.50;5002925;28;20037;-63
2023/10/07 11:43:08;;;;;;;4.10;3.45;;;;;;;23.88;49.43;101880.00;5056264;28;20598;-63
2023/10/07 11:45:35;;;;;;;7.22;3.90;;;;;;;23.87;49.36;101880.16;4957487;28;20071;-63
2023/10/07 11:48:05;;;;;;;5.65;3.58;;;;;;;23.90;49.39;101870.00;5052508;28;20513;-63
2023/10/07 11:50:35;;;;;;;5.38;3.83;;;;;;;23.91;49.28;101868.16;5003934;28;20052;-62
2023/10/07 11:53:04;;;;;;;8.23;4.05;;;;;;;23.92;49.39;101860.00;5053856;28;20049;-61
2023/10/07 11:55:32;;;;;;;4.78;3.95;;;;;;;23.90;49.51;101846.06;5006052;28;20118;-63
2023/10/07 11:58:02;;;;;;;6.72;4.30;;;;;;;23.89;49.63;101833.75;5036192;28;20593;-62
2023/10/07 12:00:37;;;;;;;6.18;4.10;;;;;;;23.92;49.27;101840.56;5006426;28;20131;-62
2023/10/07 12:03:07;;;;;;;7.10;4.03;;;;;;;23.92;49.27;101838.72;5037471;28;20049;-62
2023/10/07 12:05:35;;;;;;;7.55;3.85;;;;;;;23.94;49.27;101850.00;5004569;28;20134;-62
2023/10/07 12:08:03;;;;;;;4.70;3.70;;;;;;;23.92;49.23;101865.31;5056566;28;20055;-62
2023/10/07 12:10:33;;;;;;;8.90;4.43;;;;;;;23.94;49.24;101868.63;5005251;28;20160;-62
2023/10/07 12:12:59;;;;;;;;;;;;;;;23.92;49.25;101843.22;5054834;28;20044;-61
2023/10/07 12:15:25;;;;;;;6.35;4.07;;;;;;;23.91;49.36;101855.69;5005681;28;19924;-62
2023/10/07 12:17:51;;;;;;;6.18;4.00;;;;;;;23.87;49.15;101835.75;5055273;28;20193;-62
2023/10/07 12:20:19;;;;;;;5.55;3.88;;;;;;;23.93;49.25;101840.38;5007815;28;20036;-62
2023/10/07 12:22:46;;;;;;;7.60;3.50;;;;;;;23.94;49.34;101842.03;5050537;28;20123;-62
2023/10/07 12:25:16;;;;;;;4.63;2.85;;;;;;;23.90;48.96;101839.91;5006950;28;20118;-62
2023/10/07 12:27:45;;;;;;;;;;;;;;;23.93;49.29;101843.03;5054027;28;20479;-62